sensor_id;sensor_type;location;lat;lon;timestamp;P1;durP1;ratioP1;P2;durP2;ratioP2
18997;SDS011;9632;51.018;4.284;2023-10-13T00:01:07;8.77;;;4.32;;
18997;SDS011;9632;51.018;4.284;2023-10-13T00:03:36;11.73;;;5.15;;
18997;SDS011;9632;51.018;4.284;2023-10-13T00:06:02;10.50;;;4.55;;
18997;SDS011;9632;51.018;4.284;2023-10-13T00:08:28;11.85;;;4.90;;
18997;SDS011;9632;51.018;4.284;2023-10-13T00:10:54;10.88;;;4.78;;
18997;SDS011;9632;51.018;4.284;2023-10-13T00:13:27;9.32;;;4.20;;
18997;SDS011;9632;51.018;4.284;2023-10-13T00:15:54;12.98;;;4.97;;
18997;SDS011;9632;51.018;4.284;2023-10-13T00:18:27;14.00;;;4.95;;
18997;SDS011;9632;51.018;4.284;2023-10-13T00:21:00;9.55;;;4.80;;
18997;SDS011;9632;51.018;4.284;2023-10-13T00:23:37;12.57;;;4.40;;
18997;SDS011;9632;51.018;4.284;2023-10-13T00:26:19;8.85;;;4.50;;
18997;SDS011;9632;51.018;4.284;2023-10-13T00:28:49;12.88;;;4.90;;
18997;SDS011;9632;51.018;4.284;2023-10-13T00:31:23;15.45;;;5.03;;
18997;SDS011;9632;51.018;4.284;2023-10-13T00:33:54;12.73;;;5.03;;
18997;SDS011;9632;51.018;4.284;2023-10-13T00:36:26;8.13;;;4.15;;
18997;SDS011;9632;51.018;4.284;2023-10-13T00:38:51;11.65;;;4.63;;
18997;SDS011;9632;51.018;4.284;2023-10-13T00:41:17;7.93;;;4.28;;
18997;SDS011;9632;51.018;4.284;2023-10-13T00:43:58;10.95;;;4.57;;
18997;SDS011;9632;51.018;4.284;2023-10-13T00:46:32;13.23;;;4.20;;
18997;SDS011;9632;51.018;4.284;2023-10-13T00:49:01;9.43;;;4.80;;
18997;SDS011;9632;51.018;4.284;2023-10-13T00:51:31;12.02;;;4.90;;
18997;SDS011;9632;51.018;4.284;2023-10-13T00:54:03;9.80;;;4.50;;
18997;SDS011;9632;51.018;4.284;2023-10-13T00:56:37;10.85;;;4.50;;
18997;SDS011;9632;51.018;4.284;2023-10-13T00:59:30;10.75;;;4.18;;
18997;SDS011;9632;51.018;4.284;2023-10-13T01:02:06;22.10;;;5.95;;
18997;SDS011;9632;51.018;4.284;2023-10-13T01:05:07;14.75;;;6.57;;
18997;SDS011;9632;51.018;4.284;2023-10-13T01:07:35;18.77;;;8.07;;
18997;SDS011;9632;51.018;4.284;2023-10-13T01:10:03;14.20;;;7.13;;
18997;SDS011;9632;51.018;4.284;2023-10-13T01:12:30;18.13;;;8.35;;
18997;SDS011;9632;51.018;4.284;2023-10-13T01:14:58;17.23;;;8.52;;
18997;SDS011;9632;51.018;4.284;2023-10-13T01:17:24;16.38;;;8.13;;
18997;SDS011;9632;51.018;4.284;2023-10-13T01:19:56;19.17;;;8.48;;
18997;SDS011;9632;51.018;4.284;2023-10-13T01:22:23;18.95;;;9.50;;
18997;SDS011;9632;51.018;4.284;2023-10-13T01:24:49;20.45;;;9.73;;
18997;SDS011;9632;51.018;4.284;2023-10-13T01:27:16;27.65;;;11.52;;
18997;SDS011;9632;51.018;4.284;2023-10-13T01:29:48;23.63;;;11.15;;
18997;SDS011;9632;51.018;4.284;2023-10-13T01:32:19;24.95;;;11.43;;
18997;SDS011;9632;51.018;4.284;2023-10-13T01:34:46;26.10;;;13.05;;
18997;SDS011;9632;51.018;4.284;2023-10-13T01:37:13;21.52;;;11.38;;
18997;SDS011;9632;51.018;4.284;2023-10-13T01:39:41;24.63;;;12.68;;
18997;SDS011;9632;51.018;4.284;2023-10-13T01:42:06;27.15;;;12.60;;
18997;SDS011;9632;51.018;4.284;2023-10-13T01:44:32;23.00;;;11.65;;
18997;SDS011;9632;51.018;4.284;2023-10-13T01:46:57;29.70;;;15.57;;
18997;SDS011;9632;51.018;4.284;2023-10-13T01:49:24;25.90;;;12.90;;
18997;SDS011;9632;51.018;4.284;2023-10-13T01:51:50;28.42;;;15.95;;
18997;SDS011;9632;51.018;4.284;2023-10-13T01:54:16;28.20;;;15.55;;
18997;SDS011;9632;51.018;4.284;2023-10-13T01:56:42;25.05;;;14.10;;
18997;SDS011;9632;51.018;4.284;2023-10-13T01:59:08;30.42;;;15.27;;
18997;SDS011;9632;51.018;4.284;2023-10-13T02:01:38;34.45;;;17.67;;
18997;SDS011;9632;51.018;4.284;2023-10-13T02:04:05;25.98;;;15.70;;
18997;SDS011;9632;51.018;4.284;2023-10-13T02:06:32;33.70;;;17.13;;
18997;SDS011;9632;51.018;4.284;2023-10-13T02:09:03;33.70;;;17.15;;
18997;SDS011;9632;51.018;4.284;2023-10-13T02:11:41;39.45;;;18.52;;
18997;SDS011;9632;51.018;4.284;2023-10-13T02:14:10;28.85;;;15.93;;
18997;SDS011;9632;51.018;4.284;2023-10-13T02:16:37;31.45;;;17.48;;
18997;SDS011;9632;51.018;4.284;2023-10-13T02:19:03;35.33;;;16.92;;
18997;SDS011;9632;51.018;4.284;2023-10-13T02:21:30;28.85;;;16.23;;
18997;SDS011;9632;51.018;4.284;2023-10-13T02:23:57;46.22;;;18.73;;
18997;SDS011;9632;51.018;4.284;2023-10-13T02:26:31;29.67;;;15.35;;
18997;SDS011;9632;51.018;4.284;2023-10-13T02:28:57;35.10;;;17.15;;
18997;SDS011;9632;51.018;4.284;2023-10-13T02:31:32;35.47;;;16.92;;
18997;SDS011;9632;51.018;4.284;2023-10-13T02:34:01;36.58;;;17.65;;
18997;SDS011;9632;51.018;4.284;2023-10-13T02:36:36;32.22;;;17.23;;
18997;SDS011;9632;51.018;4.284;2023-10-13T02:39:12;33.00;;;15.35;;
18997;SDS011;9632;51.018;4.284;2023-10-13T02:41:39;36.20;;;16.63;;
18997;SDS011;9632;51.018;4.284;2023-10-13T02:44:06;32.92;;;15.43;;
18997;SDS011;9632;51.018;4.284;2023-10-13T02:46:36;31.83;;;15.00;;
18997;SDS011;9632;51.018;4.284;2023-10-13T02:49:04;33.72;;;16.70;;
18997;SDS011;9632;51.018;4.284;2023-10-13T02:51:37;35.67;;;15.68;;
18997;SDS011;9632;51.018;4.284;2023-10-13T02:54:07;35.67;;;16.60;;
18997;SDS011;9632;51.018;4.284;2023-10-13T02:56:36;34.33;;;16.00;;
18997;SDS011;9632;51.018;4.284;2023-10-13T02:59:12;29.70;;;15.20;;
18997;SDS011;9632;51.018;4.284;2023-10-13T03:01:38;33.58;;;15.00;;
18997;SDS011;9632;51.018;4.284;2023-10-13T03:04:04;30.23;;;14.45;;
18997;SDS011;9632;51.018;4.284;2023-10-13T03:06:33;26.25;;;13.30;;
18997;SDS011;9632;51.018;4.284;2023-10-13T03:09:04;32.15;;;14.82;;
18997;SDS011;9632;51.018;4.284;2023-10-13T03:11:49;30.63;;;14.25;;
18997;SDS011;9632;51.018;4.284;2023-10-13T03:14:22;28.73;;;13.80;;
18997;SDS011;9632;51.018;4.284;2023-10-13T03:16:58;33.15;;;14.15;;
18997;SDS011;9632;51.018;4.284;2023-10-13T03:19:29;30.48;;;14.35;;
18997;SDS011;9632;51.018;4.284;2023-10-13T03:22:08;31.02;;;14.45;;
18997;SDS011;9632;51.018;4.284;2023-10-13T03:24:41;32.38;;;14.35;;
18997;SDS011;9632;51.018;4.284;2023-10-13T03:27:12;31.42;;;14.52;;
18997;SDS011;9632;51.018;4.284;2023-10-13T03:29:42;33.22;;;14.82;;
18997;SDS011;9632;51.018;4.284;2023-10-13T03:32:14;30.15;;;14.05;;
18997;SDS011;9632;51.018;4.284;2023-10-13T03:34:41;28.00;;;14.10;;
18997;SDS011;9632;51.018;4.284;2023-10-13T03:37:25;35.03;;;14.70;;
18997;SDS011;9632;51.018;4.284;2023-10-13T03:40:06;35.70;;;13.65;;
18997;SDS011;9632;51.018;4.284;2023-10-13T03:42:51;29.45;;;12.70;;
18997;SDS011;9632;51.018;4.284;2023-10-13T03:45:30;27.42;;;12.57;;
18997;SDS011;9632;51.018;4.284;2023-10-13T03:48:12;30.77;;;11.85;;
18997;SDS011;9632;51.018;4.284;2023-10-13T03:51:00;29.52;;;12.45;;
18997;SDS011;9632;51.018;4.284;2023-10-13T03:53:40;28.10;;;12.30;;
18997;SDS011;9632;51.018;4.284;2023-10-13T03:56:18;28.40;;;11.80;;
18997;SDS011;9632;51.018;4.284;2023-10-13T03:58:51;27.35;;;11.48;;
18997;SDS011;9632;51.018;4.284;2023-10-13T04:01:37;26.85;;;11.18;;
18997;SDS011;9632;51.018;4.284;2023-10-13T04:04:12;24.13;;;11.07;;
18997;SDS011;9632;51.018;4.284;2023-10-13T04:06:59;24.38;;;10.95;;
18997;SDS011;9632;51.018;4.284;2023-10-13T04:09:37;27.33;;;10.77;;
18997;SDS011;9632;51.018;4.284;2023-10-13T04:12:12;22.95;;;10.05;;
18997;SDS011;9632;51.018;4.284;2023-10-13T04:14:39;20.38;;;8.95;;
18997;SDS011;9632;51.018;4.284;2023-10-13T04:17:24;25.00;;;9.18;;
18997;SDS011;9632;51.018;4.284;2023-10-13T04:19:54;21.77;;;9.27;;
18997;SDS011;9632;51.018;4.284;2023-10-13T04:22:31;23.58;;;9.38;;
18997;SDS011;9632;51.018;4.284;2023-10-13T04:25:13;17.52;;;8.32;;
18997;SDS011;9632;51.018;4.284;2023-10-13T04:27:57;21.92;;;8.68;;
18997;SDS011;9632;51.018;4.284;2023-10-13T04:30:45;18.92;;;8.90;;
18997;SDS011;9632;51.018;4.284;2023-10-13T04:33:24;24.00;;;9.35;;
18997;SDS011;9632;51.018;4.284;2023-10-13T04:36:05;24.35;;;9.32;;
18997;SDS011;9632;51.018;4.284;2023-10-13T04:39:02;20.20;;;8.68;;
18997;SDS011;9632;51.018;4.284;2023-10-13T04:41:29;19.60;;;8.10;;
18997;SDS011;9632;51.018;4.284;2023-10-13T04:44:08;20.67;;;8.98;;
18997;SDS011;9632;51.018;4.284;2023-10-13T04:46:53;20.13;;;8.48;;
18997;SDS011;9632;51.018;4.284;2023-10-13T04:49:22;24.13;;;8.18;;
18997;SDS011;9632;51.018;4.284;2023-10-13T04:52:03;20.42;;;8.13;;
18997;SDS011;9632;51.018;4.284;2023-10-13T04:54:33;17.55;;;7.10;;
18997;SDS011;9632;51.018;4.284;2023-10-13T04:57:19;20.45;;;7.32;;
18997;SDS011;9632;51.018;4.284;2023-10-13T04:59:50;17.77;;;7.05;;
18997;SDS011;9632;51.018;4.284;2023-10-13T05:02:31;19.42;;;7.18;;
18997;SDS011;9632;51.018;4.284;2023-10-13T05:05:04;18.77;;;7.10;;
18997;SDS011;9632;51.018;4.284;2023-10-13T05:07:43;24.10;;;7.28;;
18997;SDS011;9632;51.018;4.284;2023-10-13T05:10:31;16.23;;;5.82;;
18997;SDS011;9632;51.018;4.284;2023-10-13T05:13:16;20.60;;;6.55;;
18997;SDS011;9632;51.018;4.284;2023-10-13T05:16:00;23.85;;;7.05;;
18997;SDS011;9632;51.018;4.284;2023-10-13T05:18:44;21.45;;;6.85;;
18997;SDS011;9632;51.018;4.284;2023-10-13T05:21:28;17.45;;;7.15;;
18997;SDS011;9632;51.018;4.284;2023-10-13T05:24:13;17.13;;;6.43;;
18997;SDS011;9632;51.018;4.284;2023-10-13T05:26:57;21.02;;;7.40;;
18997;SDS011;9632;51.018;4.284;2023-10-13T05:29:42;25.10;;;8.07;;
18997;SDS011;9632;51.018;4.284;2023-10-13T05:32:27;19.90;;;7.03;;
18997;SDS011;9632;51.018;4.284;2023-10-13T05:35:12;20.40;;;6.90;;
18997;SDS011;9632;51.018;4.284;2023-10-13T05:37:56;23.05;;;6.78;;
18997;SDS011;9632;51.018;4.284;2023-10-13T05:43:37;21.27;;;7.00;;
18997;SDS011;9632;51.018;4.284;2023-10-13T05:46:21;15.43;;;6.35;;
18997;SDS011;9632;51.018;4.284;2023-10-13T05:48:53;21.10;;;7.28;;
18997;SDS011;9632;51.018;4.284;2023-10-13T05:51:25;26.98;;;7.55;;
18997;SDS011;9632;51.018;4.284;2023-10-13T05:54:13;20.92;;;7.85;;
18997;SDS011;9632;51.018;4.284;2023-10-13T05:59:31;22.77;;;8.45;;
18997;SDS011;9632;51.018;4.284;2023-10-13T06:02:18;30.30;;;9.50;;
18997;SDS011;9632;51.018;4.284;2023-10-13T06:05:03;27.05;;;9.57;;
18997;SDS011;9632;51.018;4.284;2023-10-13T06:07:52;35.50;;;10.63;;
18997;SDS011;9632;51.018;4.284;2023-10-13T06:10:37;27.08;;;9.98;;
18997;SDS011;9632;51.018;4.284;2023-10-13T06:13:21;28.88;;;9.43;;
18997;SDS011;9632;51.018;4.284;2023-10-13T06:16:06;26.77;;;9.45;;
18997;SDS011;9632;51.018;4.284;2023-10-13T06:18:52;24.83;;;8.90;;
18997;SDS011;9632;51.018;4.284;2023-10-13T06:21:36;31.63;;;9.23;;
18997;SDS011;9632;51.018;4.284;2023-10-13T06:24:20;26.23;;;8.23;;
18997;SDS011;9632;51.018;4.284;2023-10-13T06:27:04;23.23;;;7.45;;
18997;SDS011;9632;51.018;4.284;2023-10-13T06:29:48;20.90;;;7.15;;
18997;SDS011;9632;51.018;4.284;2023-10-13T06:32:14;21.83;;;7.25;;
18997;SDS011;9632;51.018;4.284;2023-10-13T06:34:41;26.42;;;7.43;;
18997;SDS011;9632;51.018;4.284;2023-10-13T06:37:13;23.15;;;6.90;;
18997;SDS011;9632;51.018;4.284;2023-10-13T06:39:55;29.95;;;7.10;;
18997;SDS011;9632;51.018;4.284;2023-10-13T06:42:25;16.90;;;6.15;;
18997;SDS011;9632;51.018;4.284;2023-10-13T06:44:52;19.92;;;5.80;;
18997;SDS011;9632;51.018;4.284;2023-10-13T06:47:19;15.95;;;5.80;;
18997;SDS011;9632;51.018;4.284;2023-10-13T06:49:49;21.52;;;6.63;;
18997;SDS011;9632;51.018;4.284;2023-10-13T06:52:19;21.60;;;6.45;;
18997;SDS011;9632;51.018;4.284;2023-10-13T06:54:49;24.90;;;6.47;;
18997;SDS011;9632;51.018;4.284;2023-10-13T06:57:15;16.05;;;6.18;;
18997;SDS011;9632;51.018;4.284;2023-10-13T06:59:45;22.20;;;6.25;;
18997;SDS011;9632;51.018;4.284;2023-10-13T07:02:14;16.15;;;6.10;;
18997;SDS011;9632;51.018;4.284;2023-10-13T07:04:58;24.35;;;7.03;;
18997;SDS011;9632;51.018;4.284;2023-10-13T07:07:32;20.48;;;6.28;;
18997;SDS011;9632;51.018;4.284;2023-10-13T07:09:58;19.92;;;6.30;;
18997;SDS011;9632;51.018;4.284;2023-10-13T07:12:24;15.95;;;6.63;;
18997;SDS011;9632;51.018;4.284;2023-10-13T07:14:53;25.15;;;6.35;;
18997;SDS011;9632;51.018;4.284;2023-10-13T07:17:36;23.13;;;6.78;;
18997;SDS011;9632;51.018;4.284;2023-10-13T07:20:06;22.98;;;6.80;;
18997;SDS011;9632;51.018;4.284;2023-10-13T07:22:51;21.80;;;7.05;;
18997;SDS011;9632;51.018;4.284;2023-10-13T07:25:28;20.58;;;6.40;;
18997;SDS011;9632;51.018;4.284;2023-10-13T07:27:58;22.25;;;7.57;;
18997;SDS011;9632;51.018;4.284;2023-10-13T07:30:28;25.02;;;6.40;;
18997;SDS011;9632;51.018;4.284;2023-10-13T07:32:56;18.02;;;6.75;;
18997;SDS011;9632;51.018;4.284;2023-10-13T07:35:24;29.30;;;6.53;;
18997;SDS011;9632;51.018;4.284;2023-10-13T07:37:51;23.88;;;7.07;;
18997;SDS011;9632;51.018;4.284;2023-10-13T07:40:17;21.77;;;6.15;;
18997;SDS011;9632;51.018;4.284;2023-10-13T07:42:49;25.42;;;6.85;;
18997;SDS011;9632;51.018;4.284;2023-10-13T07:45:14;19.10;;;6.40;;
18997;SDS011;9632;51.018;4.284;2023-10-13T07:47:50;19.95;;;6.25;;
18997;SDS011;9632;51.018;4.284;2023-10-13T07:50:16;16.70;;;6.40;;
18997;SDS011;9632;51.018;4.284;2023-10-13T07:52:50;18.42;;;6.32;;
18997;SDS011;9632;51.018;4.284;2023-10-13T07:55:30;20.58;;;6.50;;
18997;SDS011;9632;51.018;4.284;2023-10-13T07:57:59;25.63;;;6.43;;
18997;SDS011;9632;51.018;4.284;2023-10-13T08:00:25;16.33;;;6.20;;
18997;SDS011;9632;51.018;4.284;2023-10-13T08:03:12;18.10;;;5.88;;
18997;SDS011;9632;51.018;4.284;2023-10-13T08:05:44;18.45;;;5.68;;
18997;SDS011;9632;51.018;4.284;2023-10-13T08:08:28;23.60;;;5.72;;
18997;SDS011;9632;51.018;4.284;2023-10-13T08:11:03;17.02;;;6.00;;
18997;SDS011;9632;51.018;4.284;2023-10-13T08:13:59;18.00;;;5.65;;
18997;SDS011;9632;51.018;4.284;2023-10-13T08:16:36;22.05;;;6.38;;
18997;SDS011;9632;51.018;4.284;2023-10-13T08:19:25;22.15;;;6.38;;
18997;SDS011;9632;51.018;4.284;2023-10-13T08:21:52;17.58;;;5.78;;
18997;SDS011;9632;51.018;4.284;2023-10-13T08:24:23;15.55;;;5.53;;
18997;SDS011;9632;51.018;4.284;2023-10-13T08:26:54;16.88;;;6.10;;
18997;SDS011;9632;51.018;4.284;2023-10-13T08:29:44;22.52;;;6.20;;
18997;SDS011;9632;51.018;4.284;2023-10-13T08:32:20;19.35;;;5.97;;
18997;SDS011;9632;51.018;4.284;2023-10-13T08:35:00;19.35;;;6.03;;
18997;SDS011;9632;51.018;4.284;2023-10-13T08:37:32;21.88;;;6.15;;
18997;SDS011;9632;51.018;4.284;2023-10-13T08:40:00;15.18;;;5.60;;
18997;SDS011;9632;51.018;4.284;2023-10-13T08:42:26;23.08;;;6.40;;
18997;SDS011;9632;51.018;4.284;2023-10-13T08:45:04;17.70;;;6.05;;
18997;SDS011;9632;51.018;4.284;2023-10-13T08:47:45;14.80;;;5.82;;
18997;SDS011;9632;51.018;4.284;2023-10-13T08:50:47;22.48;;;5.85;;
18997;SDS011;9632;51.018;4.284;2023-10-13T08:58:31;14.32;;;5.90;;
18997;SDS011;9632;51.018;4.284;2023-10-13T09:01:17;21.67;;;6.05;;
18997;SDS011;9632;51.018;4.284;2023-10-13T09:04:07;19.40;;;6.05;;
18997;SDS011;9632;51.018;4.284;2023-10-13T09:06:49;21.02;;;5.88;;
18997;SDS011;9632;51.018;4.284;2023-10-13T09:09:31;16.88;;;5.68;;
18997;SDS011;9632;51.018;4.284;2023-10-13T09:12:11;25.10;;;5.45;;
18997;SDS011;9632;51.018;4.284;2023-10-13T09:14:37;20.20;;;5.65;;
18997;SDS011;9632;51.018;4.284;2023-10-13T09:17:08;15.50;;;5.40;;
18997;SDS011;9632;51.018;4.284;2023-10-13T09:19:50;18.15;;;5.03;;
18997;SDS011;9632;51.018;4.284;2023-10-13T09:22:23;16.52;;;5.45;;
18997;SDS011;9632;51.018;4.284;2023-10-13T09:25:03;24.52;;;6.35;;
18997;SDS011;9632;51.018;4.284;2023-10-13T09:27:38;14.43;;;4.78;;
18997;SDS011;9632;51.018;4.284;2023-10-13T09:30:04;16.83;;;4.93;;
18997;SDS011;9632;51.018;4.284;2023-10-13T09:32:47;23.58;;;6.18;;
18997;SDS011;9632;51.018;4.284;2023-10-13T09:35:29;20.77;;;5.60;;
18997;SDS011;9632;51.018;4.284;2023-10-13T09:37:59;24.88;;;5.93;;
18997;SDS011;9632;51.018;4.284;2023-10-13T09:40:28;20.23;;;5.95;;
18997;SDS011;9632;51.018;4.284;2023-10-13T09:42:58;20.25;;;5.60;;
18997;SDS011;9632;51.018;4.284;2023-10-13T09:45:31;19.58;;;5.68;;
18997;SDS011;9632;51.018;4.284;2023-10-13T09:48:21;23.25;;;6.07;;
18997;SDS011;9632;51.018;4.284;2023-10-13T09:50:55;19.33;;;5.80;;
18997;SDS011;9632;51.018;4.284;2023-10-13T09:53:25;18.05;;;5.40;;
18997;SDS011;9632;51.018;4.284;2023-10-13T09:55:53;20.33;;;5.82;;
18997;SDS011;9632;51.018;4.284;2023-10-13T09:58:36;17.75;;;5.60;;
18997;SDS011;9632;51.018;4.284;2023-10-13T10:01:12;25.08;;;6.32;;
18997;SDS011;9632;51.018;4.284;2023-10-13T10:03:46;17.67;;;5.80;;
18997;SDS011;9632;51.018;4.284;2023-10-13T10:06:32;20.55;;;6.25;;
18997;SDS011;9632;51.018;4.284;2023-10-13T10:09:07;20.45;;;5.50;;
18997;SDS011;9632;51.018;4.284;2023-10-13T10:17:21;17.35;;;5.72;;
18997;SDS011;9632;51.018;4.284;2023-10-13T10:19:48;15.20;;;6.13;;
18997;SDS011;9632;51.018;4.284;2023-10-13T10:22:24;18.75;;;6.25;;
18997;SDS011;9632;51.018;4.284;2023-10-13T10:25:04;19.65;;;6.40;;
18997;SDS011;9632;51.018;4.284;2023-10-13T10:27:56;18.23;;;5.53;;
18997;SDS011;9632;51.018;4.284;2023-10-13T10:30:33;24.10;;;6.00;;
18997;SDS011;9632;51.018;4.284;2023-10-13T10:33:03;19.00;;;6.03;;
18997;SDS011;9632;51.018;4.284;2023-10-13T10:35:37;16.63;;;5.78;;
18997;SDS011;9632;51.018;4.284;2023-10-13T10:38:12;23.23;;;6.40;;
18997;SDS011;9632;51.018;4.284;2023-10-13T10:40:48;24.92;;;6.20;;
18997;SDS011;9632;51.018;4.284;2023-10-13T10:43:29;22.98;;;6.05;;
18997;SDS011;9632;51.018;4.284;2023-10-13T10:46:07;19.80;;;6.13;;
18997;SDS011;9632;51.018;4.284;2023-10-13T10:48:36;19.85;;;6.18;;
18997;SDS011;9632;51.018;4.284;2023-10-13T10:51:07;24.38;;;6.43;;
18997;SDS011;9632;51.018;4.284;2023-10-13T10:53:39;22.73;;;5.95;;
18997;SDS011;9632;51.018;4.284;2023-10-13T10:56:13;18.70;;;5.97;;
18997;SDS011;9632;51.018;4.284;2023-10-13T10:58:48;22.75;;;6.05;;
18997;SDS011;9632;51.018;4.284;2023-10-13T11:01:25;22.40;;;6.25;;
18997;SDS011;9632;51.018;4.284;2023-10-13T11:04:02;23.17;;;5.90;;
18997;SDS011;9632;51.018;4.284;2023-10-13T11:06:55;17.10;;;5.85;;
18997;SDS011;9632;51.018;4.284;2023-10-13T11:09:26;19.75;;;5.63;;
18997;SDS011;9632;51.018;4.284;2023-10-13T11:12:18;19.75;;;5.53;;
18997;SDS011;9632;51.018;4.284;2023-10-13T11:15:02;19.27;;;5.88;;
18997;SDS011;9632;51.018;4.284;2023-10-13T11:17:58;26.98;;;5.78;;
18997;SDS011;9632;51.018;4.284;2023-10-13T11:20:24;20.50;;;5.82;;
18997;SDS011;9632;51.018;4.284;2023-10-13T11:23:00;21.50;;;6.03;;
18997;SDS011;9632;51.018;4.284;2023-10-13T11:25:30;16.85;;;5.43;;
18997;SDS011;9632;51.018;4.284;2023-10-13T11:28:09;24.88;;;6.35;;
18997;SDS011;9632;51.018;4.284;2023-10-13T11:30:42;26.33;;;6.15;;
18997;SDS011;9632;51.018;4.284;2023-10-13T11:33:14;25.00;;;6.53;;
18997;SDS011;9632;51.018;4.284;2023-10-13T11:35:48;23.80;;;6.28;;
18997;SDS011;9632;51.018;4.284;2023-10-13T11:41:13;22.48;;;5.75;;
18997;SDS011;9632;51.018;4.284;2023-10-13T11:43:47;27.42;;;6.07;;
18997;SDS011;9632;51.018;4.284;2023-10-13T11:46:26;24.70;;;6.50;;
18997;SDS011;9632;51.018;4.284;2023-10-13T11:49:01;24.63;;;6.40;;
18997;SDS011;9632;51.018;4.284;2023-10-13T11:51:48;21.25;;;5.50;;
18997;SDS011;9632;51.018;4.284;2023-10-13T11:54:15;23.80;;;5.82;;
18997;SDS011;9632;51.018;4.284;2023-10-13T11:56:41;18.42;;;5.70;;
18997;SDS011;9632;51.018;4.284;2023-10-13T11:59:07;22.20;;;5.78;;
18997;SDS011;9632;51.018;4.284;2023-10-13T12:01:41;23.73;;;5.90;;
18997;SDS011;9632;51.018;4.284;2023-10-13T12:04:29;24.10;;;5.97;;
18997;SDS011;9632;51.018;4.284;2023-10-13T12:07:14;26.00;;;6.55;;
18997;SDS011;9632;51.018;4.284;2023-10-13T12:09:45;22.17;;;5.75;;
18997;SDS011;9632;51.018;4.284;2023-10-13T12:12:23;21.38;;;5.78;;
18997;SDS011;9632;51.018;4.284;2023-10-13T12:14:50;25.63;;;5.90;;
18997;SDS011;9632;51.018;4.284;2023-10-13T12:17:28;33.67;;;6.13;;
18997;SDS011;9632;51.018;4.284;2023-10-13T12:20:01;61.35;;;6.20;;
18997;SDS011;9632;51.018;4.284;2023-10-13T12:22:34;22.55;;;5.35;;
18997;SDS011;9632;51.018;4.284;2023-10-13T12:25:04;22.73;;;5.40;;
18997;SDS011;9632;51.018;4.284;2023-10-13T12:27:43;23.48;;;5.47;;
18997;SDS011;9632;51.018;4.284;2023-10-13T12:30:14;20.75;;;5.75;;
18997;SDS011;9632;51.018;4.284;2023-10-13T12:32:47;22.15;;;6.03;;
18997;SDS011;9632;51.018;4.284;2023-10-13T12:35:31;24.50;;;5.35;;
18997;SDS011;9632;51.018;4.284;2023-10-13T12:38:11;17.08;;;5.28;;
18997;SDS011;9632;51.018;4.284;2023-10-13T12:40:55;16.80;;;5.03;;
18997;SDS011;9632;51.018;4.284;2023-10-13T12:43:40;20.77;;;5.55;;
18997;SDS011;9632;51.018;4.284;2023-10-13T12:46:24;23.13;;;5.38;;
18997;SDS011;9632;51.018;4.284;2023-10-13T12:49:08;18.70;;;4.75;;
18997;SDS011;9632;51.018;4.284;2023-10-13T12:51:59;14.50;;;4.65;;
18997;SDS011;9632;51.018;4.284;2023-10-13T12:54:25;18.35;;;5.45;;
18997;SDS011;9632;51.018;4.284;2023-10-13T12:57:00;18.83;;;5.40;;
18997;SDS011;9632;51.018;4.284;2023-10-13T12:59:26;18.80;;;5.35;;
18997;SDS011;9632;51.018;4.284;2023-10-13T13:01:52;17.90;;;5.03;;
18997;SDS011;9632;51.018;4.284;2023-10-13T13:04:18;19.42;;;5.82;;
18997;SDS011;9632;51.018;4.284;2023-10-13T13:06:45;15.25;;;5.30;;
18997;SDS011;9632;51.018;4.284;2023-10-13T13:09:12;20.60;;;5.40;;
18997;SDS011;9632;51.018;4.284;2023-10-13T13:11:38;18.67;;;5.07;;
18997;SDS011;9632;51.018;4.284;2023-10-13T13:14:07;17.90;;;5.50;;
18997;SDS011;9632;51.018;4.284;2023-10-13T13:16:33;21.05;;;5.53;;
18997;SDS011;9632;51.018;4.284;2023-10-13T13:19:00;13.57;;;5.18;;
18997;SDS011;9632;51.018;4.284;2023-10-13T13:21:28;18.42;;;5.13;;
18997;SDS011;9632;51.018;4.284;2023-10-13T13:23:54;18.50;;;5.32;;
18997;SDS011;9632;51.018;4.284;2023-10-13T13:26:20;15.48;;;5.00;;
18997;SDS011;9632;51.018;4.284;2023-10-13T13:28:47;19.45;;;5.13;;
18997;SDS011;9632;51.018;4.284;2023-10-13T13:31:16;14.35;;;4.72;;
18997;SDS011;9632;51.018;4.284;2023-10-13T13:33:51;22.75;;;5.03;;
18997;SDS011;9632;51.018;4.284;2023-10-13T13:36:17;20.98;;;5.30;;
18997;SDS011;9632;51.018;4.284;2023-10-13T13:38:44;15.27;;;4.88;;
18997;SDS011;9632;51.018;4.284;2023-10-13T13:41:12;19.63;;;5.28;;
18997;SDS011;9632;51.018;4.284;2023-10-13T13:43:44;17.45;;;5.38;;
18997;SDS011;9632;51.018;4.284;2023-10-13T13:46:26;17.23;;;5.30;;
18997;SDS011;9632;51.018;4.284;2023-10-13T13:48:58;18.33;;;5.28;;
18997;SDS011;9632;51.018;4.284;2023-10-13T13:51:26;19.77;;;4.85;;
18997;SDS011;9632;51.018;4.284;2023-10-13T13:53:57;13.77;;;4.80;;
18997;SDS011;9632;51.018;4.284;2023-10-13T13:56:23;15.93;;;4.88;;
18997;SDS011;9632;51.018;4.284;2023-10-13T13:58:52;15.95;;;4.55;;
18997;SDS011;9632;51.018;4.284;2023-10-13T14:01:18;21.23;;;5.38;;
18997;SDS011;9632;51.018;4.284;2023-10-13T14:03:46;18.42;;;5.25;;
18997;SDS011;9632;51.018;4.284;2023-10-13T14:06:22;16.65;;;4.80;;
18997;SDS011;9632;51.018;4.284;2023-10-13T14:08:53;14.18;;;4.55;;
18997;SDS011;9632;51.018;4.284;2023-10-13T14:11:20;12.45;;;4.60;;
18997;SDS011;9632;51.018;4.284;2023-10-13T14:14:08;19.02;;;5.65;;
18997;SDS011;9632;51.018;4.284;2023-10-13T14:16:58;15.27;;;4.97;;
18997;SDS011;9632;51.018;4.284;2023-10-13T14:19:33;14.63;;;4.55;;
18997;SDS011;9632;51.018;4.284;2023-10-13T14:21:59;12.80;;;4.68;;
18997;SDS011;9632;51.018;4.284;2023-10-13T14:24:31;14.73;;;4.80;;
18997;SDS011;9632;51.018;4.284;2023-10-13T14:27:08;14.80;;;4.47;;
18997;SDS011;9632;51.018;4.284;2023-10-13T14:29:37;18.23;;;4.90;;
18997;SDS011;9632;51.018;4.284;2023-10-13T14:32:11;13.43;;;4.85;;
18997;SDS011;9632;51.018;4.284;2023-10-13T14:34:42;16.73;;;4.72;;
18997;SDS011;9632;51.018;4.284;2023-10-13T14:37:09;13.90;;;4.55;;
18997;SDS011;9632;51.018;4.284;2023-10-13T14:39:41;13.23;;;4.45;;
18997;SDS011;9632;51.018;4.284;2023-10-13T14:42:07;16.08;;;4.85;;
18997;SDS011;9632;51.018;4.284;2023-10-13T14:44:35;16.17;;;5.15;;
18997;SDS011;9632;51.018;4.284;2023-10-13T14:47:02;13.00;;;4.70;;
18997;SDS011;9632;51.018;4.284;2023-10-13T14:49:30;15.63;;;5.00;;
18997;SDS011;9632;51.018;4.284;2023-10-13T14:51:56;13.68;;;4.65;;
18997;SDS011;9632;51.018;4.284;2023-10-13T14:54:24;15.35;;;4.90;;
18997;SDS011;9632;51.018;4.284;2023-10-13T14:57:00;14.05;;;4.78;;
18997;SDS011;9632;51.018;4.284;2023-10-13T14:59:29;18.95;;;5.03;;
18997;SDS011;9632;51.018;4.284;2023-10-13T15:01:59;16.45;;;5.25;;
18997;SDS011;9632;51.018;4.284;2023-10-13T15:04:26;14.55;;;4.82;;
18997;SDS011;9632;51.018;4.284;2023-10-13T15:06:53;14.98;;;5.00;;
18997;SDS011;9632;51.018;4.284;2023-10-13T15:09:20;19.95;;;5.40;;
18997;SDS011;9632;51.018;4.284;2023-10-13T15:11:49;17.60;;;5.25;;
18997;SDS011;9632;51.018;4.284;2023-10-13T15:14:18;19.17;;;5.15;;
18997;SDS011;9632;51.018;4.284;2023-10-13T15:16:45;16.02;;;5.30;;
18997;SDS011;9632;51.018;4.284;2023-10-13T15:19:11;12.48;;;4.70;;
18997;SDS011;9632;51.018;4.284;2023-10-13T15:21:37;15.15;;;5.15;;
18997;SDS011;9632;51.018;4.284;2023-10-13T15:24:05;21.42;;;5.35;;
18997;SDS011;9632;51.018;4.284;2023-10-13T15:26:45;14.95;;;4.72;;
18997;SDS011;9632;51.018;4.284;2023-10-13T15:29:17;13.75;;;4.72;;
18997;SDS011;9632;51.018;4.284;2023-10-13T15:31:50;21.73;;;5.68;;
18997;SDS011;9632;51.018;4.284;2023-10-13T15:34:30;15.00;;;5.03;;
18997;SDS011;9632;51.018;4.284;2023-10-13T15:36:57;15.90;;;5.07;;
18997;SDS011;9632;51.018;4.284;2023-10-13T15:39:24;19.38;;;4.88;;
18997;SDS011;9632;51.018;4.284;2023-10-13T15:41:53;14.05;;;4.68;;
18997;SDS011;9632;51.018;4.284;2023-10-13T15:44:23;17.15;;;5.07;;
18997;SDS011;9632;51.018;4.284;2023-10-13T15:46:53;15.20;;;5.18;;